Time;durP1;ratioP1;P1;durP2;ratioP2;P2;SDS_P1;SDS_P2;PMS_P1;PMS_P2;Temp;Humidity;BMP_temperature;BMP_pressure;BME280_temperature;BME280_humidity;BME280_pressure;Samples;Min_cycle;Max_cycle;Signal;HPM_P1;HPM_P2
2021/10/28 00:13:08;;;;;;;12.30;8.20;;;;;;;2.52;87.47;98574.28;6170818;28;20214;-68
2021/10/28 00:16:15;;;;;;;10.43;8.10;;;;;;;2.54;87.98;98575.06;6171099;28;20564;-68
2021/10/28 00:19:18;;;;;;;10.40;8.20;;;;;;;2.54;87.65;98575.94;6171297;28;20277;-69
2021/10/28 00:22:22;;;;;;;12.53;8.23;;;;;;;2.55;87.64;98566.34;6170471;28;20565;-69
2021/10/28 00:25:25;;;;;;;9.73;6.97;;;;;;;2.53;87.65;98568.16;6170951;28;20561;-69
2021/10/28 00:28:28;;;;;;;9.73;7.23;;;;;;;2.53;87.58;98560.34;6170651;28;20669;-68
2021/10/28 00:31:34;;;;;;;13.13;8.23;;;;;;;2.52;87.74;98559.50;6159127;28;20334;-68
2021/10/28 00:34:36;;;;;;;9.43;7.10;;;;;;;2.51;87.75;98568.22;6164152;28;20207;-69
2021/10/28 00:37:40;;;;;;;9.53;7.73;;;;;;;2.47;87.94;98569.22;6170053;28;20269;-69
2021/10/28 00:40:42;;;;;;;11.43;8.63;;;;;;;2.45;87.97;98563.22;6169670;28;20199;-69
2021/10/28 00:44:03;;;;;;;9.63;7.47;;;;;;;2.42;87.61;98560.69;6169218;28;20197;-69
2021/10/28 00:47:06;;;;;;;9.97;8.03;;;;;;;2.40;87.72;98566.84;6170571;28;20571;-68
2021/10/28 00:50:09;;;;;;;12.07;8.20;;;;;;;2.38;87.89;98566.09;6170122;28;20614;-69
2021/10/28 00:53:11;;;;;;;13.80;8.93;;;;;;;2.35;87.89;98566.16;6170439;28;20582;-69
2021/10/28 00:56:14;;;;;;;11.90;8.43;;;;;;;2.32;87.77;98566.25;6161155;28;20202;-68
2021/10/28 00:59:16;;;;;;;13.17;9.00;;;;;;;2.28;87.66;98564.69;6169521;28;20238;-69
2021/10/28 01:02:18;;;;;;;11.27;8.17;;;;;;;2.28;87.88;98568.13;6168995;28;20577;-68
2021/10/28 01:05:21;;;;;;;12.30;8.27;;;;;;;2.27;87.65;98562.97;6169607;28;20206;-69
2021/10/28 01:08:26;;;;;;;14.67;9.30;;;;;;;2.25;87.78;98556.97;6170376;28;20229;-69
2021/10/28 01:11:28;;;;;;;12.03;8.53;;;;;;;2.24;nan;98561.31;6170297;28;20205;-69
2021/10/28 01:14:42;;;;;;;13.27;9.33;;;;;;;2.20;87.68;98557.94;6169805;28;20210;-69
2021/10/28 01:17:45;;;;;;;13.53;8.77;;;;;;;2.19;87.96;98550.22;6169157;28;20206;-68
2021/10/28 01:20:50;;;;;;;12.40;8.77;;;;;;;2.19;87.88;98547.63;6170025;28;20674;-68
2021/10/28 01:23:56;;;;;;;10.30;8.03;;;;;;;2.17;87.71;98545.06;6169302;28;20206;-69
2021/10/28 01:27:04;;;;;;;12.50;7.97;;;;;;;2.16;88.12;98545.94;6152966;28;20854;-69
2021/10/28 01:30:07;;;;;;;12.13;8.93;;;;;;;2.15;87.82;98544.25;6169794;28;20204;-69
2021/10/28 01:33:09;;;;;;;19.70;9.23;;;;;;;2.17;88.11;98544.19;6164148;28;20210;-69
2021/10/28 01:36:12;;;;;;;11.20;8.57;;;;;;;2.16;88.31;98542.50;6169233;28;20201;-68
2021/10/28 01:39:17;;;;;;;13.07;8.80;;;;;;;2.14;88.01;98537.34;6170067;28;20600;-69
2021/10/28 01:42:19;;;;;;;13.30;8.83;;;;;;;2.16;88.14;98534.69;6169423;28;20198;-69
2021/10/28 01:45:21;;;;;;;10.73;8.17;;;;;;;2.14;88.37;98529.53;6169273;28;20293;-69
2021/10/28 01:48:24;;;;;;;9.27;7.60;;;;;;;2.13;88.18;98524.38;6172245;28;20409;-69
2021/10/28 01:51:27;;;;;;;9.97;8.70;;;;;;;2.14;88.16;98520.84;6174042;28;20190;-69
2021/10/28 01:54:29;;;;;;;11.73;9.23;;;;;;;2.13;88.35;98521.75;6174027;28;20249;-68
2021/10/28 01:57:31;;;;;;;14.67;9.40;;;;;;;2.13;88.33;98521.75;6153800;28;20229;-68
2021/10/28 02:00:35;;;;;;;18.03;10.67;;;;;;;2.13;88.37;98519.16;6149722;28;20209;-69
2021/10/28 02:03:37;;;;;;;16.13;11.60;;;;;;;2.14;88.39;98524.31;6173299;28;20199;-68
2021/10/28 02:06:40;;;;;;;13.97;10.13;;;;;;;2.16;88.40;98524.28;6156352;28;20205;-69
2021/10/28 02:09:42;;;;;;;12.37;8.77;;;;;;;2.15;88.52;98510.41;6173980;28;20569;-69
2021/10/28 02:12:48;;;;;;;16.37;10.20;;;;;;;2.16;88.68;98514.72;6156165;28;20561;-68
2021/10/28 02:15:50;;;;;;;12.13;8.80;;;;;;;2.17;88.50;98521.63;6173726;28;20690;-69
2021/10/28 02:18:52;;;;;;;12.43;9.50;;;;;;;2.17;88.48;98523.38;6173636;28;20585;-68
2021/10/28 02:21:54;;;;;;;13.33;10.03;;;;;;;2.16;88.53;98527.72;6173615;28;20209;-68
2021/10/28 02:24:56;;;;;;;13.77;9.30;;;;;;;2.12;88.56;98525.25;6172035;28;20190;-69
2021/10/28 02:27:58;;;;;;;13.70;10.00;;;;;;;2.11;88.99;98520.94;6173343;28;20222;-69
2021/10/28 02:31:01;;;;;;;13.83;8.73;;;;;;;2.09;88.63;98523.63;6166009;28;20532;-69
2021/10/28 02:34:03;;;;;;;16.53;10.30;;;;;;;2.08;88.90;98524.53;6157532;28;20586;-69
2021/10/28 02:37:05;;;;;;;18.27;11.00;;;;;;;2.07;88.64;98520.22;6173450;28;20260;-68
2021/10/28 02:40:09;;;;;;;15.73;10.87;;;;;;;2.04;88.97;98520.31;6173636;28;20770;-68
2021/10/28 02:43:11;;;;;;;16.80;11.83;;;;;;;2.03;89.12;98509.94;6173005;28;20662;-68
2021/10/28 02:46:13;;;;;;;16.43;10.97;;;;;;;2.02;88.87;98511.69;6173152;28;20280;-69
2021/10/28 02:49:17;;;;;;;12.67;10.13;;;;;;;2.05;88.87;98510.75;6169300;28;20257;-69
2021/10/28 02:52:19;;;;;;;17.97;11.77;;;;;;;2.07;88.83;98514.16;6172967;28;20570;-69
2021/10/28 02:55:21;;;;;;;14.93;10.90;;;;;;;2.06;88.83;98500.28;6170598;28;20201;-68
2021/10/28 02:58:23;;;;;;;18.87;12.40;;;;;;;2.08;88.81;98506.31;6141999;28;20609;-69
2021/10/28 03:01:25;;;;;;;16.40;10.80;;;;;;;2.07;89.06;98502.00;6172877;28;20197;-68
2021/10/28 03:04:28;;;;;;;15.80;11.33;;;;;;;2.08;89.16;98506.31;6170577;28;20194;-68
2021/10/28 03:07:32;;;;;;;15.73;10.27;;;;;;;2.07;89.15;98493.34;6155236;28;20683;-69
2021/10/28 03:10:34;;;;;;;15.07;11.70;;;;;;;2.04;89.10;98496.88;6172865;28;20576;-68
2021/10/28 03:13:37;;;;;;;15.43;11.23;;;;;;;2.00;89.35;98495.28;6170578;28;20210;-69
2021/10/28 03:26:29;;;;;;;15.80;11.93;;;;;;;1.98;88.97;98489.28;6171672;28;20673;-69
2021/10/28 03:29:31;;;;;;;16.47;11.93;;;;;;;1.93;89.17;98493.78;6170769;28;20677;-68
2021/10/28 03:32:34;;;;;;;15.40;11.63;;;;;;;1.91;89.45;98495.56;6160572;28;20197;-68
2021/10/28 03:35:37;;;;;;;16.53;12.27;;;;;;;1.92;89.55;98497.28;6166866;28;20207;-68
2021/10/28 03:38:53;;;;;;;14.23;10.53;;;;;;;1.93;89.53;98491.19;6170946;28;20228;-68
2021/10/28 03:42:35;;;;;;;19.10;13.07;;;;;;;1.93;89.34;98492.94;6171351;28;20301;-69
2021/10/28 03:48:45;;;;;;;15.77;11.23;;;;;;;1.85;89.56;98499.25;6171134;28;20773;-69
2021/10/28 04:30:51;;;;;;;13.83;10.83;;;;;;;1.61;89.09;98504.34;6169127;28;20205;-68
2021/10/28 04:33:55;;;;;;;15.70;11.37;;;;;;;1.61;88.78;98496.56;6170561;28;20584;-69
2021/10/28 04:36:57;;;;;;;20.30;12.83;;;;;;;1.63;89.25;98503.41;6170225;28;20222;-68
2021/10/28 04:39:59;;;;;;;19.90;13.03;;;;;;;1.63;88.93;98505.16;6170505;28;20229;-68
2021/10/28 04:43:01;;;;;;;20.17;12.97;;;;;;;1.62;89.40;98503.47;6170752;28;20194;-69
2021/10/28 04:46:04;;;;;;;15.53;12.07;;;;;;;1.60;88.80;98505.28;6169457;28;20201;-69
2021/10/28 04:49:06;;;;;;;19.20;14.03;;;;;;;1.57;89.09;98505.38;6145167;29;20700;-68
2021/10/28 04:52:08;;;;;;;21.67;14.07;;;;;;;1.50;89.00;98498.66;6147140;29;20647;-68
2021/10/28 04:55:10;;;;;;;14.50;11.93;;;;;;;1.38;88.78;98499.88;6146168;29;20213;-69
2021/10/28 04:58:13;;;;;;;16.87;11.93;;;;;;;1.31;88.82;98500.94;6146724;29;20201;-68
2021/10/28 05:01:15;;;;;;;15.53;11.03;;;;;;;1.22;89.04;98503.81;6146856;29;20195;-69
2021/10/28 05:04:18;;;;;;;13.97;10.60;;;;;;;1.14;88.75;98503.22;6146165;29;20570;-68
2021/10/28 05:07:20;;;;;;;13.93;10.80;;;;;;;1.05;89.08;98506.94;6146610;29;20228;-69
2021/10/28 05:10:23;;;;;;;12.43;10.23;;;;;;;0.98;89.29;98500.22;6146052;29;20205;-68
2021/10/28 05:13:25;;;;;;;15.07;10.67;;;;;;;0.90;88.98;98497.00;6145150;29;20206;-68
2021/10/28 05:16:27;;;;;;;13.00;10.80;;;;;;;0.85;88.72;98504.03;6128945;29;20269;-68
2021/10/28 05:19:32;;;;;;;15.17;11.57;;;;;;;0.81;88.69;98505.00;6146481;29;20198;-68
2021/10/28 05:22:34;;;;;;;13.83;10.40;;;;;;;0.82;88.74;98511.91;6148886;28;20678;-68
2021/10/28 05:25:37;;;;;;;15.10;9.97;;;;;;;0.80;89.12;98508.53;6150655;29;20203;-68
2021/10/28 05:28:39;;;;;;;13.43;10.93;;;;;;;0.78;88.38;98512.91;6150973;29;20325;-69
2021/10/28 05:31:41;;;;;;;15.50;10.50;;;;;;;0.75;88.48;98506.06;6150347;29;20512;-68
2021/10/28 05:34:44;;;;;;;16.10;10.90;;;;;;;0.72;88.71;98506.97;6150671;29;20730;-68
2021/10/28 05:37:46;;;;;;;16.83;11.10;;;;;;;0.70;89.06;98508.75;6151123;28;20733;-68
2021/10/28 05:40:49;;;;;;;14.60;10.60;;;;;;;0.70;88.97;98511.34;6150147;29;20194;-69
2021/10/28 05:43:51;;;;;;;17.17;12.37;;;;;;;0.68;88.71;98505.38;6149285;29;20202;-69
2021/10/28 05:46:53;;;;;;;14.77;10.57;;;;;;;0.70;88.76;98520.91;6150333;29;20187;-69
2021/10/28 05:49:55;;;;;;;16.17;11.23;;;;;;;0.69;88.47;98517.47;6133394;29;20219;-68
2021/10/28 05:52:59;;;;;;;15.40;10.73;;;;;;;0.70;88.33;98519.16;6150492;29;20718;-68
2021/10/28 05:56:02;;;;;;;20.70;12.67;;;;;;;0.70;89.09;98516.56;6141997;29;20218;-68
2021/10/28 05:59:04;;;;;;;19.27;11.47;;;;;;;0.73;88.35;98523.41;6147406;29;20202;-68
2021/10/28 06:02:06;;;;;;;17.07;13.03;;;;;;;0.74;88.33;98525.97;6148183;29;20677;-68
2021/10/28 06:05:09;;;;;;;15.07;11.23;;;;;;;0.76;88.63;98525.94;6149333;29;20730;-68
2021/10/28 06:08:11;;;;;;;14.37;11.03;;;;;;;0.76;89.00;98525.09;6132658;29;20195;-68
2021/10/28 06:11:15;;;;;;;17.53;11.70;;;;;;;0.80;88.18;98531.91;6149216;29;20675;-68
2021/10/28 06:14:23;;;;;;;16.00;10.27;;;;;;;0.83;88.51;98534.41;6148453;29;20214;-68
2021/10/28 06:17:31;;;;;;;15.53;10.70;;;;;;;0.87;88.69;98525.66;6132115;29;20571;-68
2021/10/28 06:20:34;;;;;;;13.93;10.13;;;;;;;0.90;88.72;98528.16;6149661;29;20187;-70
2021/10/28 06:23:38;;;;;;;14.30;10.93;;;;;;;0.93;88.20;98528.91;6149065;29;20266;-68
2021/10/28 06:26:40;;;;;;;12.87;9.50;;;;;;;0.99;88.22;98536.56;6149250;29;20690;-68
2021/10/28 06:29:42;;;;;;;16.50;10.80;;;;;;;1.02;88.13;98538.19;6149468;29;20195;-68
2021/10/28 06:32:55;;;;;;;15.53;10.60;;;;;;;1.05;88.54;98527.72;6135834;28;20566;-68
2021/10/28 06:36:02;;;;;;;15.23;10.47;;;;;;;1.07;88.62;98534.59;6148093;29;20579;-69
2021/10/28 06:39:05;;;;;;;14.37;10.33;;;;;;;1.09;88.44;98530.19;6148679;28;20222;-68
2021/10/28 06:42:11;;;;;;;17.43;11.03;;;;;;;1.13;88.00;98528.34;6131889;29;20187;-68
2021/10/28 06:45:16;;;;;;;15.07;10.50;;;;;;;1.17;88.29;98534.31;6148934;29;20199;-68
2021/10/28 06:48:18;;;;;;;15.67;11.77;;;;;;;1.23;88.36;98539.31;6158808;28;20675;-68
2021/10/28 06:51:21;;;;;;;15.03;11.20;;;;;;;1.28;87.91;98535.72;6171367;28;20321;-68
2021/10/28 06:54:27;;;;;;;17.10;11.67;;;;;;;1.36;87.97;98540.69;6172130;28;20248;-68
2021/10/28 06:57:58;;;;;;;18.87;12.33;;;;;;;1.46;88.41;98540.38;6152016;28;20568;-68
2021/10/28 07:04:15;;;;;;;21.10;15.47;;;;;;;1.76;87.74;98553.31;6171747;28;20671;-68
2021/10/28 07:07:18;;;;;;;22.87;16.07;;;;;;;1.97;88.17;98544.00;6172305;28;20212;-70
2021/10/28 07:10:23;;;;;;;23.43;17.00;;;;;;;2.17;87.96;98545.06;6171879;28;20194;-68
2021/10/28 07:13:30;;;;;;;48.97;24.50;;;;;;;2.49;nan;98545.75;6172029;28;20285;-68
2021/10/28 07:57:20;;;;;;;32.83;23.10;;;;;;;4.13;88.08;98523.88;6156936;28;20218;-69
2021/10/28 08:17:24;;;;;;;24.60;20.87;;;;;;;5.38;87.97;98514.03;6170168;28;20217;-68
2021/10/28 08:30:08;;;;;;;27.90;20.53;;;;;;;6.34;84.40;98488.44;6169979;28;20201;-68
2021/10/28 08:33:12;;;;;;;21.30;17.13;;;;;;;6.49;83.68;98486.84;6159492;28;20197;-69
2021/10/28 08:37:06;;;;;;;25.87;20.73;;;;;;;6.74;83.58;98492.50;6170218;28;20439;-69
2021/10/28 08:39:49;;;;;;;21.57;17.43;;;;;;;6.99;83.00;98487.66;6165158;28;20933;-69
2021/10/28 08:42:52;;;;;;;19.77;16.07;;;;;;;7.29;82.29;98479.06;6153163;28;20194;-69
2021/10/28 08:45:55;;;;;;;19.33;16.10;;;;;;;7.48;81.67;98471.06;6170246;28;20194;-68
2021/10/28 08:49:03;;;;;;;19.20;15.53;;;;;;;7.66;81.16;98470.88;6144803;29;20788;-68
2021/10/28 08:55:30;;;;;;;21.83;15.67;;;;;;;8.27;79.79;98470.00;6143545;29;20203;-69
2021/10/28 09:19:35;;;;;;;15.40;12.30;;;;;;;9.14;77.06;98459.53;6149022;29;20212;-68
2021/10/28 09:26:09;;;;;;;12.17;10.73;;;;;;;10.86;71.48;98464.88;6150675;29;20651;-68
2021/10/28 09:32:31;;;;;;;15.87;12.70;;;;;;;11.32;69.23;98449.31;6131628;29;20227;-68
2021/10/28 09:46:17;;;;;;;15.57;12.40;;;;;;;11.93;65.49;98450.19;6150268;29;20210;-68
2021/10/28 09:52:30;;;;;;;12.57;11.27;;;;;;;12.40;64.93;98451.09;6132299;29;20580;-68
2021/10/28 09:58:48;;;;;;;13.10;10.57;;;;;;;12.73;63.76;98439.75;6135582;29;20204;-68
2021/10/28 10:01:58;;;;;;;15.83;12.93;;;;;;;12.92;62.36;98445.31;6149975;29;20231;-69
2021/10/28 10:05:04;;;;;;;17.67;13.10;;;;;;;12.93;61.26;98439.91;6149339;29;20187;-69
2021/10/28 10:08:09;;;;;;;14.67;11.13;;;;;;;13.02;61.49;98445.44;6149707;28;20188;-68
2021/10/28 10:11:11;;;;;;;13.93;11.93;;;;;;;13.20;61.52;98449.31;6150052;29;20198;-69
2021/10/28 10:14:14;;;;;;;14.00;12.50;;;;;;;12.98;61.04;98446.66;6148970;29;20206;-68
2021/10/28 10:17:17;;;;;;;17.33;12.70;;;;;;;13.03;60.85;98447.13;6149613;29;20240;-68
2021/10/28 10:20:27;;;;;;;15.17;13.17;;;;;;;13.18;60.61;98449.44;6149063;29;20202;-68
2021/10/28 10:23:58;;;;;;;18.43;14.93;;;;;;;13.23;60.03;98438.50;6149594;29;20210;-68
2021/10/28 11:06:21;;;;;;;17.90;11.60;;;;;;;14.82;55.16;98386.38;6171632;28;20221;-68
2021/10/28 11:19:42;;;;;;;14.03;9.87;;;;;;;14.89;53.45;98368.94;6172326;28;20212;-68
2021/10/28 11:23:17;;;;;;;10.63;9.40;;;;;;;14.98;53.04;98371.63;6171262;28;20293;-68
2021/10/28 12:48:56;;;;;;;10.20;8.67;;;;;;;17.26;42.60;98315.03;6170154;28;20702;-68
2021/10/28 12:52:09;;;;;;;12.20;8.70;;;;;;;16.90;43.06;98301.56;6170252;28;20277;-68
2021/10/28 12:55:51;;;;;;;10.03;8.30;;;;;;;16.98;42.78;98307.00;6169278;28;20692;-67
2021/10/28 13:49:54;;;;;;;10.93;8.57;;;;;;;13.27;49.72;98283.56;6173742;28;20596;-67
2021/10/28 15:29:01;;;;;;;15.30;12.17;;;;;;;10.33;58.60;98258.28;6171797;28;20220;-67
2021/10/28 15:39:25;;;;;;;14.00;11.57;;;;;;;10.18;59.65;98255.91;6171916;28;20223;-67
2021/10/28 16:24:37;;;;;;;16.33;13.20;;;;;;;9.03;63.54;98239.03;6153170;28;20197;-67
2021/10/28 16:27:39;;;;;;;18.27;13.97;;;;;;;8.90;64.26;98238.13;6171185;28;20193;-67
2021/10/28 16:30:43;;;;;;;16.57;13.77;;;;;;;8.79;64.75;98240.59;6168075;28;20189;-67
2021/10/28 16:33:45;;;;;;;16.33;14.00;;;;;;;8.80;64.35;98243.13;6170908;28;20194;-67
2021/10/28 16:36:48;;;;;;;17.23;13.83;;;;;;;8.72;64.72;98242.78;6170343;28;20228;-67
2021/10/28 16:39:51;;;;;;;16.57;14.23;;;;;;;8.66;64.94;98245.81;6170393;28;20198;-67
2021/10/28 16:42:53;;;;;;;18.50;14.80;;;;;;;8.73;64.79;98244.47;6170604;28;20568;-67
2021/10/28 16:45:55;;;;;;;15.87;13.87;;;;;;;8.68;65.35;98248.34;6170431;28;20654;-67
2021/10/28 16:48:58;;;;;;;17.20;14.90;;;;;;;8.54;65.25;98249.22;6170425;28;20225;-68
2021/10/28 16:52:00;;;;;;;16.83;14.13;;;;;;;8.46;65.73;98256.75;6169735;28;20194;-67
2021/10/28 16:55:04;;;;;;;17.93;15.37;;;;;;;8.34;66.73;98255.72;6169935;28;20317;-67
2021/10/28 16:58:09;;;;;;;18.03;14.33;;;;;;;8.29;66.17;98249.00;6153318;28;20225;-67
2021/10/28 17:01:12;;;;;;;18.00;15.40;;;;;;;8.14;67.14;98253.44;6170314;28;20185;-67
2021/10/28 17:04:14;;;;;;;19.83;16.87;;;;;;;8.12;67.01;98256.16;6170263;28;20255;-67
2021/10/28 17:07:16;;;;;;;19.37;15.57;;;;;;;8.11;66.65;98246.59;6170204;28;20224;-67
2021/10/28 17:10:19;;;;;;;16.43;14.70;;;;;;;8.01;67.19;98255.13;6170433;28;20193;-67
2021/10/28 17:13:21;;;;;;;19.00;15.50;;;;;;;7.91;67.61;98259.25;6169214;28;20689;-67
2021/10/28 17:16:24;;;;;;;18.00;16.00;;;;;;;7.85;68.75;98255.22;6170105;28;20698;-67
2021/10/28 17:19:26;;;;;;;19.00;16.87;;;;;;;7.73;68.00;98248.91;6174596;28;20691;-67
2021/10/28 17:22:28;;;;;;;19.63;17.00;;;;;;;7.58;68.85;98252.47;6174779;28;20569;-67
2021/10/28 17:25:37;;;;;;;19.17;15.57;;;;;;;7.45;69.56;98254.09;6174955;28;20595;-67
2021/10/28 17:28:39;;;;;;;18.30;15.93;;;;;;;7.41;69.90;98249.94;6174959;28;20183;-68
2021/10/28 17:31:41;;;;;;;22.90;17.83;;;;;;;7.30;70.51;98255.81;6161682;28;20209;-67
2021/10/28 17:34:44;;;;;;;18.03;15.43;;;;;;;7.11;70.94;98254.34;6152468;28;20201;-67
2021/10/28 17:37:46;;;;;;;19.43;16.40;;;;;;;6.97;71.28;98255.16;6174317;28;20703;-67
2021/10/28 17:40:50;;;;;;;18.67;16.67;;;;;;;6.88;71.41;98250.44;6174535;28;20200;-67
2021/10/28 17:44:13;;;;;;;21.47;18.37;;;;;;;6.74;71.52;98252.97;6173955;28;20196;-67
2021/10/28 17:47:16;;;;;;;20.07;17.67;;;;;;;6.61;72.42;98253.63;6174481;28;20199;-67
2021/10/28 17:50:24;;;;;;;20.67;16.47;;;;;;;6.44;72.05;98260.75;6174832;28;20207;-67
2021/10/28 17:53:26;;;;;;;20.23;16.23;;;;;;;6.32;72.45;98264.00;6172764;28;20196;-67
2021/10/28 17:56:30;;;;;;;19.60;16.73;;;;;;;6.17;72.75;98258.69;6162971;28;20203;-67
2021/10/28 17:59:33;;;;;;;21.70;18.30;;;;;;;6.06;73.18;98254.94;6174102;28;20195;-67
2021/10/28 18:02:36;;;;;;;20.27;17.13;;;;;;;5.95;73.64;98252.03;6173019;28;20210;-67
2021/10/28 18:05:39;;;;;;;21.30;18.73;;;;;;;5.79;73.74;98244.13;6141272;28;20215;-67
2021/10/28 18:08:42;;;;;;;21.87;17.87;;;;;;;5.64;74.47;98250.13;6173746;28;20670;-67
2021/10/28 18:11:45;;;;;;;24.27;17.73;;;;;;;5.48;74.86;98237.84;6174096;28;20206;-67
2021/10/28 18:14:47;;;;;;;24.43;18.33;;;;;;;5.37;75.28;98244.53;6156047;28;20210;-67
2021/10/28 18:17:49;;;;;;;19.83;17.40;;;;;;;5.31;74.83;98250.06;6156967;28;20809;-67
2021/10/28 18:20:52;;;;;;;23.67;19.43;;;;;;;5.20;75.41;98248.81;6173711;28;20186;-67
2021/10/28 18:24:04;;;;;;;20.60;17.07;;;;;;;5.14;75.48;98243.91;6156564;28;20195;-67
2021/10/28 18:27:08;;;;;;;21.20;18.10;;;;;;;5.13;75.88;98243.97;6173822;28;20200;-67
2021/10/28 18:30:13;;;;;;;23.40;18.33;;;;;;;5.06;75.63;98232.97;6172851;28;20673;-67
2021/10/28 18:33:16;;;;;;;23.63;18.73;;;;;;;4.91;76.45;98236.31;6166747;28;20280;-67
2021/10/28 18:36:20;;;;;;;23.23;19.87;;;;;;;4.84;76.54;98237.56;6172507;28;20202;-67
2021/10/28 18:39:23;;;;;;;22.33;17.20;;;;;;;4.79;77.34;98239.56;6173675;28;20364;-67
2021/10/28 18:42:25;;;;;;;24.80;18.07;;;;;;;4.75;76.91;98228.38;6171996;28;20272;-67
2021/10/28 18:45:27;;;;;;;27.70;20.97;;;;;;;4.71;76.91;98237.28;6172836;28;20201;-67
2021/10/28 18:48:30;;;;;;;26.57;20.60;;;;;;;4.65;78.11;98234.13;6155947;28;20230;-67
2021/10/28 18:51:34;;;;;;;26.47;20.87;;;;;;;4.56;78.24;98237.19;6172967;28;20309;-67
2021/10/28 18:54:38;;;;;;;23.97;19.60;;;;;;;4.50;77.69;98240.06;6172856;28;20655;-67
2021/10/28 18:57:40;;;;;;;26.77;20.33;;;;;;;4.48;79.03;98237.53;6172714;28;20209;-67
2021/10/28 19:00:42;;;;;;;26.17;21.40;;;;;;;4.45;78.45;98235.06;6155576;28;20205;-67
2021/10/28 19:03:46;;;;;;;26.90;20.87;;;;;;;4.45;78.92;98235.91;6172723;28;20588;-67
2021/10/28 19:06:50;;;;;;;23.97;20.10;;;;;;;4.48;78.90;98228.84;6171016;28;20330;-67
2021/10/28 19:09:52;;;;;;;27.40;22.57;;;;;;;4.42;79.47;98233.44;6172672;28;20665;-67
2021/10/28 19:12:55;;;;;;;26.43;20.27;;;;;;;4.40;79.33;98239.66;6171988;28;20573;-68
2021/10/28 19:15:58;;;;;;;24.27;20.47;;;;;;;4.40;79.22;98226.56;6173209;28;20680;-67
2021/10/28 19:19:02;;;;;;;26.23;20.43;;;;;;;4.36;79.91;98225.03;6172382;28;20264;-68
2021/10/28 19:22:05;;;;;;;24.37;19.93;;;;;;;4.30;79.76;98226.16;6172027;28;20197;-68
2021/10/28 19:25:08;;;;;;;29.93;23.40;;;;;;;4.31;80.56;98222.63;6172317;28;20190;-67
2021/10/28 19:28:11;;;;;;;27.60;21.93;;;;;;;4.28;80.22;98224.56;6171799;28;20717;-68
2021/10/28 19:31:23;;;;;;;26.97;21.33;;;;;;;4.25;80.20;98225.53;6163302;28;20239;-70
2021/10/28 19:34:28;;;;;;;25.23;21.77;;;;;;;4.26;80.66;98224.63;6157628;28;20205;-67
2021/10/28 19:38:39;;;;;;;27.17;21.10;;;;;;;4.26;80.42;98226.38;6171749;28;20229;-67
2021/10/28 19:41:15;;;;;;;25.00;19.73;;;;;;;4.22;80.25;98230.06;6162671;28;20261;-68
2021/10/28 19:47:40;;;;;;;27.27;22.03;;;;;;;4.09;81.28;98221.94;6172120;28;20221;-67
2021/10/28 19:50:47;;;;;;;29.60;22.13;;;;;;;4.06;80.82;98217.72;6171375;28;20724;-67
2021/10/28 19:53:50;;;;;;;28.80;22.17;;;;;;;3.97;80.89;98212.91;6171672;28;20178;-67
2021/10/28 19:56:53;;;;;;;31.47;24.60;;;;;;;3.93;80.79;98208.72;6157405;28;20697;-67
2021/10/28 20:00:01;;;;;;;25.43;20.80;;;;;;;3.87;81.32;98216.00;6167366;28;20212;-70
2021/10/28 20:13:51;;;;;;;32.83;23.30;;;;;;;3.74;81.45;98218.28;6170888;28;20217;-67
2021/10/28 20:22:41;;;;;;;30.17;23.47;;;;;;;3.62;81.91;98214.47;6171077;28;20609;-68
2021/10/28 20:25:43;;;;;;;30.57;23.57;;;;;;;3.59;81.98;98225.03;6171095;28;20193;-68
2021/10/28 20:28:48;;;;;;;29.37;22.50;;;;;;;3.55;82.27;98217.41;6170711;28;20239;-67
2021/10/28 20:31:50;;;;;;;31.07;23.63;;;;;;;3.55;82.27;98213.03;6157185;28;20194;-68
2021/10/28 20:38:11;;;;;;;29.73;23.50;;;;;;;3.52;82.55;98215.78;6170781;28;20299;-68
2021/10/28 20:41:16;;;;;;;31.67;24.67;;;;;;;3.50;82.45;98214.13;6170821;28;20291;-67
2021/10/28 20:44:18;;;;;;;33.47;24.63;;;;;;;3.48;83.03;98214.22;6169083;28;20208;-70
2021/10/28 20:47:20;;;;;;;32.90;26.43;;;;;;;3.46;83.47;98215.22;6170642;28;20566;-67
2021/10/28 20:50:26;;;;;;;32.10;25.73;;;;;;;3.47;83.16;98203.84;6170250;28;20573;-68
2021/10/28 20:53:28;;;;;;;32.93;24.83;;;;;;;3.48;83.37;98214.22;6152443;28;20224;-67
2021/10/28 20:56:32;;;;;;;30.47;24.80;;;;;;;3.48;83.31;98203.78;6160596;28;20630;-67
2021/10/28 20:59:34;;;;;;;34.47;26.83;;;;;;;3.45;83.92;98203.91;6170556;28;20570;-68
2021/10/28 21:02:37;;;;;;;31.00;24.27;;;;;;;3.43;84.00;98200.53;6153578;28;20571;-68
2021/10/28 21:05:39;;;;;;;33.43;25.27;;;;;;;3.42;84.26;98198.81;6169453;28;20211;-68
2021/10/28 21:08:45;;;;;;;33.63;26.50;;;;;;;3.42;84.44;98201.44;6170366;28;20622;-67
2021/10/28 21:11:48;;;;;;;33.97;27.23;;;;;;;3.39;84.37;98185.09;6170178;28;20204;-68
2021/10/28 21:14:50;;;;;;;34.20;26.93;;;;;;;3.35;84.19;98189.56;6169070;28;20212;-67
2021/10/28 21:17:52;;;;;;;31.57;25.17;;;;;;;3.33;84.16;98191.41;6169269;28;20212;-67
2021/10/28 21:20:55;;;;;;;38.63;28.83;;;;;;;3.31;84.34;98188.84;6168471;28;20196;-68
2021/10/28 21:23:58;;;;;;;36.43;27.37;;;;;;;3.30;84.28;98188.91;6170667;28;20616;-68
2021/10/28 21:27:01;;;;;;;38.23;28.43;;;;;;;3.28;84.39;98191.63;6169939;28;20197;-68
2021/10/28 21:30:09;;;;;;;35.43;27.23;;;;;;;3.25;84.64;98186.53;6170362;28;20544;-68
2021/10/28 21:33:14;;;;;;;33.30;26.43;;;;;;;3.21;84.63;98186.69;6165831;28;20198;-67
2021/10/28 21:36:16;;;;;;;33.50;26.27;;;;;;;3.20;84.85;98192.81;6169176;28;20200;-67
2021/10/28 21:39:18;;;;;;;38.43;27.83;;;;;;;3.19;84.54;98178.13;6170753;28;20330;-68
2021/10/28 21:42:22;;;;;;;34.53;26.07;;;;;;;3.17;85.08;98182.56;6169732;28;20226;-68
2021/10/28 21:45:30;;;;;;;35.93;26.87;;;;;;;3.14;85.21;98186.13;6168904;28;20603;-68
2021/10/28 21:48:33;;;;;;;35.33;29.33;;;;;;;3.11;85.00;98186.25;6169461;28;20630;-68
2021/10/28 21:51:35;;;;;;;34.67;27.30;;;;;;;3.10;85.10;98186.31;6170017;28;20537;-68
2021/10/28 21:54:44;;;;;;;33.20;26.27;;;;;;;3.05;85.29;98188.28;6170328;28;20728;-68
2021/10/28 22:01:08;;;;;;;34.63;26.37;;;;;;;3.00;85.06;98183.25;6168529;28;20237;-68
2021/10/28 22:24:37;;;;;;;33.17;25.73;;;;;;;2.74;85.58;98167.84;6174004;28;20205;-68
2021/10/28 22:27:31;;;;;;;35.77;25.80;;;;;;;2.66;85.56;98165.56;6173347;28;20206;-68
2021/10/28 22:30:33;;;;;;;31.97;24.93;;;;;;;2.62;85.39;98161.38;6169918;28;20201;-68
2021/10/28 22:33:36;;;;;;;35.90;27.77;;;;;;;2.59;85.54;98170.19;6158100;28;20203;-68
2021/10/28 22:36:45;;;;;;;35.93;27.53;;;;;;;2.56;85.48;98164.25;6173150;28;20562;-68
2021/10/28 22:40:08;;;;;;;30.90;24.83;;;;;;;2.52;85.62;98158.28;6173460;28;20620;-68
2021/10/28 22:43:15;;;;;;;32.57;26.33;;;;;;;2.45;85.49;98158.59;6156111;28;20605;-68
2021/10/28 22:46:17;;;;;;;37.80;26.43;;;;;;;2.42;85.71;98153.50;6173212;28;20482;-68
2021/10/28 22:49:21;;;;;;;39.83;28.40;;;;;;;2.36;85.49;98151.16;6172793;28;20227;-68
2021/10/28 22:52:33;;;;;;;35.50;27.43;;;;;;;2.31;85.63;98147.88;6171877;28;20218;-68
2021/10/28 22:55:44;;;;;;;34.10;25.97;;;;;;;2.25;85.75;98150.75;6168500;28;20290;-68
2021/10/28 22:58:51;;;;;;;39.37;29.03;;;;;;;2.18;85.58;98153.59;6150110;28;20249;-68
2021/10/28 23:02:16;;;;;;;34.57;27.10;;;;;;;2.13;85.66;98152.91;6165077;28;20242;-68
2021/10/28 23:05:31;;;;;;;34.53;26.97;;;;;;;2.07;85.45;98152.31;6155370;28;20761;-68
2021/10/28 23:12:59;;;;;;;34.47;26.20;;;;;;;1.93;85.57;98146.78;6097961;29;20201;-68
2021/10/28 23:22:23;;;;;;;42.83;31.27;;;;;;;1.82;85.29;98141.97;6172431;28;20194;-67
2021/10/28 23:25:25;;;;;;;37.97;28.97;;;;;;;1.78;85.46;98133.47;6171933;28;20321;-68
2021/10/28 23:28:27;;;;;;;41.37;29.60;;;;;;;1.75;85.63;98136.19;6172377;28;20189;-68
2021/10/28 23:31:29;;;;;;;39.80;29.13;;;;;;;1.71;85.58;98139.78;6164250;28;20201;-68
2021/10/28 23:34:32;;;;;;;38.57;29.87;;;;;;;1.69;85.92;98128.63;6171158;28;20580;-68
2021/10/28 23:37:34;;;;;;;38.70;29.30;;;;;;;1.68;85.69;98131.28;6172997;28;20211;-68
2021/10/28 23:40:38;;;;;;;44.03;30.30;;;;;;;1.64;85.64;98132.28;6171464;28;20197;-68
2021/10/28 23:43:40;;;;;;;43.97;32.20;;;;;;;1.64;85.76;98138.31;6154743;28;20558;-68
2021/10/28 23:46:42;;;;;;;40.97;30.07;;;;;;;1.62;85.95;98131.47;6171365;28;20566;-68
2021/10/28 23:49:44;;;;;;;39.77;28.63;;;;;;;1.57;86.30;98131.66;6171849;28;20222;-68